sensor_id;sensor_type;location;lat;lon;timestamp;pressure;altitude;pressure_sealevel;temperature;humidity
15604;BME280;7902;49.042;9.092;2023-11-19T00:00:35;99003.28;;;11.80;65.89
15604;BME280;7902;49.042;9.092;2023-11-19T00:03:01;99006.03;;;11.78;66.06
15604;BME280;7902;49.042;9.092;2023-11-19T00:05:27;99004.63;;;11.85;65.65
15604;BME280;7902;49.042;9.092;2023-11-19T00:07:53;98998.72;;;11.82;65.94
15604;BME280;7902;49.042;9.092;2023-11-19T00:10:20;98997.66;;;11.84;66.39
15604;BME280;7902;49.042;9.092;2023-11-19T00:12:48;98991.56;;;11.84;65.84
15604;BME280;7902;49.042;9.092;2023-11-19T00:15:15;98991.09;;;11.90;66.12
15604;BME280;7902;49.042;9.092;2023-11-19T00:17:42;98989.41;;;11.89;65.95
15604;BME280;7902;49.042;9.092;2023-11-19T00:20:15;98986.06;;;11.87;65.83
15604;BME280;7902;49.042;9.092;2023-11-19T00:22:41;98987.25;;;11.94;65.66
15604;BME280;7902;49.042;9.092;2023-11-19T00:25:08;98980.06;;;11.96;65.55
15604;BME280;7902;49.042;9.092;2023-11-19T00:27:35;98985.94;;;11.88;66.10
15604;BME280;7902;49.042;9.092;2023-11-19T00:30:04;98974.09;;;11.83;66.43
15604;BME280;7902;49.042;9.092;2023-11-19T00:32:32;98971.09;;;11.87;66.13
15604;BME280;7902;49.042;9.092;2023-11-19T00:34:58;98975.31;;;11.90;66.07
15604;BME280;7902;49.042;9.092;2023-11-19T00:37:24;98972.91;;;11.87;66.20
15604;BME280;7902;49.042;9.092;2023-11-19T00:39:50;98963.59;;;11.83;66.18
15604;BME280;7902;49.042;9.092;2023-11-19T00:42:17;98965.84;;;11.87;66.27
15604;BME280;7902;49.042;9.092;2023-11-19T00:44:43;98962.38;;;11.87;66.24
15604;BME280;7902;49.042;9.092;2023-11-19T00:47:09;98955.84;;;11.81;67.46
15604;BME280;7902;49.042;9.092;2023-11-19T00:49:35;98949.22;;;11.87;66.71
15604;BME280;7902;49.042;9.092;2023-11-19T00:52:01;98940.16;;;11.91;67.28
15604;BME280;7902;49.042;9.092;2023-11-19T00:54:28;98933.78;;;11.94;66.81
15604;BME280;7902;49.042;9.092;2023-11-19T00:56:53;98926.84;;;11.93;66.03
15604;BME280;7902;49.042;9.092;2023-11-19T00:59:19;98932.84;;;11.95;66.57
15604;BME280;7902;49.042;9.092;2023-11-19T01:01:45;98936.69;;;11.91;66.94
15604;BME280;7902;49.042;9.092;2023-11-19T01:04:14;98925.16;;;11.92;67.18
15604;BME280;7902;49.042;9.092;2023-11-19T01:06:40;98924.09;;;11.94;66.52
15604;BME280;7902;49.042;9.092;2023-11-19T01:09:08;98923.00;;;11.97;66.92
15604;BME280;7902;49.042;9.092;2023-11-19T01:11:34;98926.72;;;11.94;66.69
15604;BME280;7902;49.042;9.092;2023-11-19T01:14:01;98931.63;;;11.99;66.54
15604;BME280;7902;49.042;9.092;2023-11-19T01:16:27;98926.63;;;11.84;66.73
15604;BME280;7902;49.042;9.092;2023-11-19T01:18:53;98928.88;;;12.00;66.11
15604;BME280;7902;49.042;9.092;2023-11-19T01:21:20;98931.53;;;11.89;66.67
15604;BME280;7902;49.042;9.092;2023-11-19T01:23:46;98934.94;;;12.01;65.41
15604;BME280;7902;49.042;9.092;2023-11-19T01:26:12;98931.75;;;11.97;66.23
15604;BME280;7902;49.042;9.092;2023-11-19T01:28:39;98937.72;;;11.99;66.42
15604;BME280;7902;49.042;9.092;2023-11-19T01:31:05;98937.38;;;11.93;66.33
15604;BME280;7902;49.042;9.092;2023-11-19T01:33:36;98938.38;;;11.80;66.70
15604;BME280;7902;49.042;9.092;2023-11-19T01:36:02;98940.06;;;11.81;66.48
15604;BME280;7902;49.042;9.092;2023-11-19T01:38:28;98930.94;;;11.85;66.86
15604;BME280;7902;49.042;9.092;2023-11-19T01:40:57;98927.81;;;11.92;67.31
15604;BME280;7902;49.042;9.092;2023-11-19T01:43:37;98929.00;;;11.87;67.05
15604;BME280;7902;49.042;9.092;2023-11-19T01:46:04;98920.44;;;11.85;67.41
15604;BME280;7902;49.042;9.092;2023-11-19T01:48:34;98920.25;;;11.98;66.72
15604;BME280;7902;49.042;9.092;2023-11-19T01:51:03;98926.94;;;12.02;66.55
15604;BME280;7902;49.042;9.092;2023-11-19T01:53:30;98928.34;;;12.06;67.18
15604;BME280;7902;49.042;9.092;2023-11-19T01:55:56;98925.72;;;12.06;65.98
15604;BME280;7902;49.042;9.092;2023-11-19T01:58:22;98927.03;;;12.12;65.70
15604;BME280;7902;49.042;9.092;2023-11-19T02:00:49;98924.66;;;12.09;66.16
15604;BME280;7902;49.042;9.092;2023-11-19T02:03:15;98926.06;;;12.13;66.90
15604;BME280;7902;49.042;9.092;2023-11-19T02:05:40;98914.81;;;12.11;66.48
15604;BME280;7902;49.042;9.092;2023-11-19T02:08:07;98912.72;;;12.05;66.30
15604;BME280;7902;49.042;9.092;2023-11-19T02:10:33;98920.81;;;12.13;66.98
15604;BME280;7902;49.042;9.092;2023-11-19T02:13:00;98915.09;;;12.08;66.94
15604;BME280;7902;49.042;9.092;2023-11-19T02:15:26;98916.03;;;12.07;67.06
15604;BME280;7902;49.042;9.092;2023-11-19T02:17:52;98917.34;;;12.12;68.60
15604;BME280;7902;49.042;9.092;2023-11-19T02:20:18;98913.88;;;12.12;66.50
15604;BME280;7902;49.042;9.092;2023-11-19T02:22:46;98912.91;;;12.13;66.34
15604;BME280;7902;49.042;9.092;2023-11-19T02:25:32;98910.97;;;12.15;67.20
15604;BME280;7902;49.042;9.092;2023-11-19T02:27:59;98920.09;;;12.11;67.36
15604;BME280;7902;49.042;9.092;2023-11-19T02:30:25;98914.34;;;12.17;66.22
15604;BME280;7902;49.042;9.092;2023-11-19T02:32:55;98901.19;;;12.17;67.07
15604;BME280;7902;49.042;9.092;2023-11-19T02:35:26;98907.16;;;12.19;67.13
15604;BME280;7902;49.042;9.092;2023-11-19T02:37:54;98909.34;;;12.14;67.44
15604;BME280;7902;49.042;9.092;2023-11-19T02:40:20;98906.19;;;12.20;67.19
15604;BME280;7902;49.042;9.092;2023-11-19T02:42:50;98896.63;;;12.19;67.36
15604;BME280;7902;49.042;9.092;2023-11-19T02:45:16;98900.91;;;12.20;66.26
15604;BME280;7902;49.042;9.092;2023-11-19T02:47:43;98908.56;;;12.23;66.61
15604;BME280;7902;49.042;9.092;2023-11-19T02:50:12;98914.78;;;12.22;67.16
15604;BME280;7902;49.042;9.092;2023-11-19T02:52:43;98922.59;;;12.12;66.98
15604;BME280;7902;49.042;9.092;2023-11-19T02:55:10;98919.69;;;12.26;66.62
15604;BME280;7902;49.042;9.092;2023-11-19T02:57:39;98921.50;;;12.15;66.87
15604;BME280;7902;49.042;9.092;2023-11-19T03:00:15;98917.91;;;12.16;67.07
15604;BME280;7902;49.042;9.092;2023-11-19T03:02:41;98907.38;;;12.16;67.10
15604;BME280;7902;49.042;9.092;2023-11-19T03:05:15;98895.91;;;12.17;68.32
15604;BME280;7902;49.042;9.092;2023-11-19T03:07:42;98890.53;;;12.18;67.36
15604;BME280;7902;49.042;9.092;2023-11-19T03:10:12;98883.31;;;12.20;67.56
15604;BME280;7902;49.042;9.092;2023-11-19T03:12:42;98872.69;;;12.22;68.02
15604;BME280;7902;49.042;9.092;2023-11-19T03:15:09;98870.53;;;12.16;67.58
15604;BME280;7902;49.042;9.092;2023-11-19T03:17:39;98871.38;;;12.16;67.81
15604;BME280;7902;49.042;9.092;2023-11-19T03:20:06;98879.41;;;12.15;68.37
15604;BME280;7902;49.042;9.092;2023-11-19T03:22:32;98879.66;;;12.12;67.90
15604;BME280;7902;49.042;9.092;2023-11-19T03:25:01;98879.41;;;12.15;67.37
15604;BME280;7902;49.042;9.092;2023-11-19T03:27:27;98868.13;;;12.24;67.14
15604;BME280;7902;49.042;9.092;2023-11-19T03:29:53;98866.47;;;12.23;67.33
15604;BME280;7902;49.042;9.092;2023-11-19T03:32:19;98846.47;;;12.20;67.57
15604;BME280;7902;49.042;9.092;2023-11-19T03:34:45;98853.91;;;12.15;68.16
15604;BME280;7902;49.042;9.092;2023-11-19T03:37:11;98849.25;;;12.19;66.68
15604;BME280;7902;49.042;9.092;2023-11-19T03:39:38;98849.25;;;12.19;67.95
15604;BME280;7902;49.042;9.092;2023-11-19T03:42:04;98845.78;;;12.18;66.11
15604;BME280;7902;49.042;9.092;2023-11-19T03:44:30;98847.63;;;12.07;66.79
15604;BME280;7902;49.042;9.092;2023-11-19T03:46:56;98847.31;;;12.21;67.55
15604;BME280;7902;49.042;9.092;2023-11-19T03:49:22;98836.28;;;12.27;66.60
15604;BME280;7902;49.042;9.092;2023-11-19T03:51:49;98833.97;;;12.13;66.56
15604;BME280;7902;49.042;9.092;2023-11-19T03:54:15;98834.03;;;12.22;66.57
15604;BME280;7902;49.042;9.092;2023-11-19T03:56:41;98827.41;;;12.28;65.57
15604;BME280;7902;49.042;9.092;2023-11-19T03:59:07;98838.06;;;12.26;65.81
15604;BME280;7902;49.042;9.092;2023-11-19T04:01:35;98837.69;;;12.31;66.11
15604;BME280;7902;49.042;9.092;2023-11-19T04:04:03;98838.66;;;12.30;65.64
15604;BME280;7902;49.042;9.092;2023-11-19T04:06:29;98830.19;;;12.26;66.09
15604;BME280;7902;49.042;9.092;2023-11-19T04:08:54;98832.41;;;12.31;66.13
15604;BME280;7902;49.042;9.092;2023-11-19T04:11:21;98829.22;;;12.27;65.74
15604;BME280;7902;49.042;9.092;2023-11-19T04:13:47;98824.56;;;12.20;66.21
15604;BME280;7902;49.042;9.092;2023-11-19T04:16:13;98832.69;;;12.28;65.61
15604;BME280;7902;49.042;9.092;2023-11-19T04:18:40;98828.56;;;12.35;65.69
15604;BME280;7902;49.042;9.092;2023-11-19T04:21:07;98836.97;;;12.29;65.73
15604;BME280;7902;49.042;9.092;2023-11-19T04:23:33;98819.56;;;12.17;66.75
15604;BME280;7902;49.042;9.092;2023-11-19T04:26:02;98834.94;;;12.32;66.08
15604;BME280;7902;49.042;9.092;2023-11-19T04:28:28;98827.28;;;12.29;66.96
15604;BME280;7902;49.042;9.092;2023-11-19T04:30:54;98815.34;;;12.05;66.80
15604;BME280;7902;49.042;9.092;2023-11-19T04:33:20;98822.25;;;12.06;67.35
15604;BME280;7902;49.042;9.092;2023-11-19T04:35:46;98805.31;;;11.99;67.20
15604;BME280;7902;49.042;9.092;2023-11-19T04:38:12;98804.56;;;12.08;68.56
15604;BME280;7902;49.042;9.092;2023-11-19T04:40:37;98799.56;;;12.05;67.74
15604;BME280;7902;49.042;9.092;2023-11-19T04:43:03;98805.34;;;12.19;71.28
15604;BME280;7902;49.042;9.092;2023-11-19T04:45:30;98802.50;;;12.32;69.63
15604;BME280;7902;49.042;9.092;2023-11-19T04:47:55;98812.63;;;12.16;67.26
15604;BME280;7902;49.042;9.092;2023-11-19T04:50:21;98812.59;;;12.27;68.14
15604;BME280;7902;49.042;9.092;2023-11-19T04:52:47;98817.59;;;12.30;69.07
15604;BME280;7902;49.042;9.092;2023-11-19T04:55:13;98822.34;;;12.36;70.25
15604;BME280;7902;49.042;9.092;2023-11-19T04:57:40;98829.13;;;12.39;69.17
15604;BME280;7902;49.042;9.092;2023-11-19T05:00:06;98832.53;;;12.50;68.53
15604;BME280;7902;49.042;9.092;2023-11-19T05:02:36;98814.03;;;12.61;75.22
15604;BME280;7902;49.042;9.092;2023-11-19T05:05:03;98814.72;;;12.63;71.33
15604;BME280;7902;49.042;9.092;2023-11-19T05:07:33;98821.31;;;12.79;73.79
15604;BME280;7902;49.042;9.092;2023-11-19T05:09:58;98819.69;;;12.87;74.28
15604;BME280;7902;49.042;9.092;2023-11-19T05:12:24;98816.38;;;12.85;74.09
15604;BME280;7902;49.042;9.092;2023-11-19T05:14:50;98821.41;;;12.98;73.35
15604;BME280;7902;49.042;9.092;2023-11-19T05:17:19;98820.44;;;12.99;73.84
15604;BME280;7902;49.042;9.092;2023-11-19T05:19:45;98816.25;;;12.96;74.55
15604;BME280;7902;49.042;9.092;2023-11-19T05:22:12;98820.97;;;13.13;73.21
15604;BME280;7902;49.042;9.092;2023-11-19T05:24:38;98826.16;;;13.04;74.59
15604;BME280;7902;49.042;9.092;2023-11-19T05:27:05;98829.28;;;13.28;76.54
15604;BME280;7902;49.042;9.092;2023-11-19T05:29:32;98813.03;;;13.23;73.67
15604;BME280;7902;49.042;9.092;2023-11-19T05:31:58;98804.91;;;13.05;72.02
15604;BME280;7902;49.042;9.092;2023-11-19T05:34:24;98814.03;;;13.22;73.15
15604;BME280;7902;49.042;9.092;2023-11-19T05:36:50;98828.47;;;13.18;73.32
15604;BME280;7902;49.042;9.092;2023-11-19T05:39:17;98810.25;;;13.15;72.62
15604;BME280;7902;49.042;9.092;2023-11-19T05:41:44;98818.22;;;13.34;72.40
15604;BME280;7902;49.042;9.092;2023-11-19T05:44:10;98804.34;;;13.32;70.59
15604;BME280;7902;49.042;9.092;2023-11-19T05:46:36;98822.91;;;13.21;73.52
15604;BME280;7902;49.042;9.092;2023-11-19T05:49:06;98816.00;;;13.30;71.81
15604;BME280;7902;49.042;9.092;2023-11-19T05:51:31;98810.16;;;13.26;73.65
15604;BME280;7902;49.042;9.092;2023-11-19T05:53:57;98808.88;;;13.21;71.03
15604;BME280;7902;49.042;9.092;2023-11-19T05:56:23;98809.31;;;13.26;71.75
15604;BME280;7902;49.042;9.092;2023-11-19T05:58:50;98810.88;;;13.38;73.87
15604;BME280;7902;49.042;9.092;2023-11-19T06:01:16;98826.50;;;13.20;69.67
15604;BME280;7902;49.042;9.092;2023-11-19T06:03:42;98820.16;;;13.23;69.49
15604;BME280;7902;49.042;9.092;2023-11-19T06:06:09;98815.69;;;13.23;73.17
15604;BME280;7902;49.042;9.092;2023-11-19T06:08:35;98815.72;;;13.33;74.08
15604;BME280;7902;49.042;9.092;2023-11-19T06:11:01;98822.66;;;13.34;72.01
15604;BME280;7902;49.042;9.092;2023-11-19T06:13:27;98826.03;;;13.45;73.80
15604;BME280;7902;49.042;9.092;2023-11-19T06:15:53;98820.19;;;13.42;71.69
15604;BME280;7902;49.042;9.092;2023-11-19T06:18:18;98825.75;;;13.48;73.45
15604;BME280;7902;49.042;9.092;2023-11-19T06:20:45;98826.88;;;13.46;71.71
15604;BME280;7902;49.042;9.092;2023-11-19T06:23:11;98827.84;;;13.54;71.14
15604;BME280;7902;49.042;9.092;2023-11-19T06:25:37;98830.50;;;13.54;72.38
15604;BME280;7902;49.042;9.092;2023-11-19T06:28:04;98839.34;;;13.44;69.97
15604;BME280;7902;49.042;9.092;2023-11-19T06:30:30;98829.09;;;13.50;72.01
15604;BME280;7902;49.042;9.092;2023-11-19T06:32:58;98828.38;;;13.39;69.05
15604;BME280;7902;49.042;9.092;2023-11-19T06:35:24;98830.47;;;13.45;70.70
15604;BME280;7902;49.042;9.092;2023-11-19T06:37:50;98835.19;;;13.41;73.72
15604;BME280;7902;49.042;9.092;2023-11-19T06:40:16;98833.50;;;13.40;71.38
15604;BME280;7902;49.042;9.092;2023-11-19T06:42:42;98840.47;;;13.41;71.24
15604;BME280;7902;49.042;9.092;2023-11-19T06:45:08;98836.81;;;13.33;70.73
15604;BME280;7902;49.042;9.092;2023-11-19T06:47:35;98826.16;;;13.44;73.89
15604;BME280;7902;49.042;9.092;2023-11-19T06:50:01;98825.47;;;13.51;73.83
15604;BME280;7902;49.042;9.092;2023-11-19T06:52:27;98821.00;;;13.42;69.59
15604;BME280;7902;49.042;9.092;2023-11-19T06:54:53;98818.94;;;13.46;69.16
15604;BME280;7902;49.042;9.092;2023-11-19T06:57:18;98820.06;;;13.62;73.38
15604;BME280;7902;49.042;9.092;2023-11-19T06:59:46;98819.41;;;13.60;74.47
15604;BME280;7902;49.042;9.092;2023-11-19T07:02:11;98833.38;;;13.51;70.44
15604;BME280;7902;49.042;9.092;2023-11-19T07:04:37;98856.59;;;13.57;69.71
15604;BME280;7902;49.042;9.092;2023-11-19T07:07:03;98875.44;;;13.43;71.93
15604;BME280;7902;49.042;9.092;2023-11-19T07:09:31;98873.38;;;13.56;70.75
15604;BME280;7902;49.042;9.092;2023-11-19T07:11:57;98870.47;;;13.59;72.89
15604;BME280;7902;49.042;9.092;2023-11-19T07:14:22;98872.97;;;13.61;71.29
15604;BME280;7902;49.042;9.092;2023-11-19T07:16:49;98859.75;;;13.51;70.14
15604;BME280;7902;49.042;9.092;2023-11-19T07:19:16;98863.41;;;13.60;72.32
15604;BME280;7902;49.042;9.092;2023-11-19T07:21:42;98852.59;;;13.73;72.59
15604;BME280;7902;49.042;9.092;2023-11-19T07:24:10;98841.91;;;13.74;72.62
15604;BME280;7902;49.042;9.092;2023-11-19T07:26:42;98849.25;;;13.71;73.12
15604;BME280;7902;49.042;9.092;2023-11-19T07:29:08;98851.19;;;13.69;72.02
15604;BME280;7902;49.042;9.092;2023-11-19T07:31:34;98852.28;;;13.66;72.63
15604;BME280;7902;49.042;9.092;2023-11-19T07:33:59;98851.88;;;13.71;72.85
15604;BME280;7902;49.042;9.092;2023-11-19T07:36:25;98859.13;;;13.78;72.69
15604;BME280;7902;49.042;9.092;2023-11-19T07:38:51;98858.00;;;13.71;69.40
15604;BME280;7902;49.042;9.092;2023-11-19T07:41:17;98867.47;;;13.74;72.52
15604;BME280;7902;49.042;9.092;2023-11-19T07:43:43;98862.72;;;13.68;69.72
15604;BME280;7902;49.042;9.092;2023-11-19T07:46:11;98868.84;;;13.68;69.38
15604;BME280;7902;49.042;9.092;2023-11-19T07:48:39;98882.44;;;13.63;73.19
15604;BME280;7902;49.042;9.092;2023-11-19T07:51:05;98883.41;;;13.72;72.20
15604;BME280;7902;49.042;9.092;2023-11-19T07:53:31;98879.13;;;13.81;72.07
15604;BME280;7902;49.042;9.092;2023-11-19T07:55:58;98875.81;;;13.88;70.77
15604;BME280;7902;49.042;9.092;2023-11-19T07:58:27;98886.94;;;13.92;73.12
15604;BME280;7902;49.042;9.092;2023-11-19T08:00:53;98886.38;;;13.98;73.33
15604;BME280;7902;49.042;9.092;2023-11-19T08:03:19;98879.44;;;14.16;72.82
15604;BME280;7902;49.042;9.092;2023-11-19T08:05:45;98877.06;;;14.03;73.48
15604;BME280;7902;49.042;9.092;2023-11-19T08:08:12;98879.13;;;14.00;74.79
15604;BME280;7902;49.042;9.092;2023-11-19T08:10:38;98885.25;;;14.10;73.24
15604;BME280;7902;49.042;9.092;2023-11-19T08:13:05;98880.28;;;14.07;73.84
15604;BME280;7902;49.042;9.092;2023-11-19T08:15:32;98879.28;;;14.08;73.88
15604;BME280;7902;49.042;9.092;2023-11-19T08:17:57;98883.19;;;14.14;73.16
15604;BME280;7902;49.042;9.092;2023-11-19T08:20:23;98875.13;;;14.15;73.80
15604;BME280;7902;49.042;9.092;2023-11-19T08:22:49;98867.50;;;14.12;73.69
15604;BME280;7902;49.042;9.092;2023-11-19T08:25:15;98863.44;;;14.08;72.81
15604;BME280;7902;49.042;9.092;2023-11-19T08:27:41;98867.75;;;14.19;74.20
15604;BME280;7902;49.042;9.092;2023-11-19T08:30:09;98873.88;;;14.19;72.48
15604;BME280;7902;49.042;9.092;2023-11-19T08:32:35;98876.63;;;14.27;72.28
15604;BME280;7902;49.042;9.092;2023-11-19T08:35:01;98885.25;;;14.29;71.45
15604;BME280;7902;49.042;9.092;2023-11-19T08:37:27;98878.84;;;14.22;73.23
15604;BME280;7902;49.042;9.092;2023-11-19T08:39:53;98886.78;;;14.32;72.19
15604;BME280;7902;49.042;9.092;2023-11-19T08:42:19;98892.47;;;14.27;73.82
15604;BME280;7902;49.042;9.092;2023-11-19T08:44:51;98895.28;;;14.35;73.58
15604;BME280;7902;49.042;9.092;2023-11-19T08:47:19;98886.22;;;14.28;71.85
15604;BME280;7902;49.042;9.092;2023-11-19T08:49:45;98869.41;;;14.29;72.33
15604;BME280;7902;49.042;9.092;2023-11-19T08:52:12;98873.03;;;14.09;72.28
15604;BME280;7902;49.042;9.092;2023-11-19T08:54:37;98875.81;;;14.27;72.80
15604;BME280;7902;49.042;9.092;2023-11-19T08:57:04;98880.53;;;14.33;71.91
15604;BME280;7902;49.042;9.092;2023-11-19T08:59:30;98879.97;;;14.10;73.54
15604;BME280;7902;49.042;9.092;2023-11-19T09:01:56;98887.78;;;14.21;73.94
15604;BME280;7902;49.042;9.092;2023-11-19T09:04:22;98884.72;;;14.26;72.94
15604;BME280;7902;49.042;9.092;2023-11-19T09:06:50;98877.91;;;14.42;73.20
15604;BME280;7902;49.042;9.092;2023-11-19T09:09:16;98875.81;;;14.46;72.60
15604;BME280;7902;49.042;9.092;2023-11-19T09:11:42;98884.44;;;14.67;72.20
15604;BME280;7902;49.042;9.092;2023-11-19T09:14:08;98879.88;;;14.50;72.09
15604;BME280;7902;49.042;9.092;2023-11-19T09:16:34;98882.91;;;14.45;71.55
15604;BME280;7902;49.042;9.092;2023-11-19T09:19:00;98882.34;;;14.52;72.54
15604;BME280;7902;49.042;9.092;2023-11-19T09:21:28;98894.28;;;14.65;71.13
15604;BME280;7902;49.042;9.092;2023-11-19T09:23:57;98890.84;;;14.45;71.62
15604;BME280;7902;49.042;9.092;2023-11-19T09:26:23;98901.94;;;14.68;72.07
15604;BME280;7902;49.042;9.092;2023-11-19T09:28:49;98908.63;;;14.63;72.12
15604;BME280;7902;49.042;9.092;2023-11-19T09:31:17;98898.19;;;14.71;71.05
15604;BME280;7902;49.042;9.092;2023-11-19T09:33:44;98892.19;;;14.78;70.21
15604;BME280;7902;49.042;9.092;2023-11-19T09:36:13;98908.91;;;14.60;70.78
15604;BME280;7902;49.042;9.092;2023-11-19T09:38:40;98913.38;;;14.69;70.02
15604;BME280;7902;49.042;9.092;2023-11-19T09:41:06;98922.94;;;14.50;71.06
15604;BME280;7902;49.042;9.092;2023-11-19T09:43:35;98912.53;;;14.59;71.58
15604;BME280;7902;49.042;9.092;2023-11-19T09:46:06;98906.81;;;14.63;70.60
15604;BME280;7902;49.042;9.092;2023-11-19T09:48:35;98917.53;;;14.62;71.40
15604;BME280;7902;49.042;9.092;2023-11-19T09:51:01;98901.94;;;14.68;71.74
15604;BME280;7902;49.042;9.092;2023-11-19T09:53:28;98888.34;;;14.63;73.03
15604;BME280;7902;49.042;9.092;2023-11-19T09:55:55;98891.63;;;14.75;72.24
15604;BME280;7902;49.042;9.092;2023-11-19T09:58:22;98889.69;;;14.77;71.64
15604;BME280;7902;49.042;9.092;2023-11-19T10:00:49;98885.25;;;14.77;69.67
15604;BME280;7902;49.042;9.092;2023-11-19T10:03:15;98894.56;;;14.72;71.28
15604;BME280;7902;49.042;9.092;2023-11-19T10:05:41;98896.09;;;14.65;71.86
15604;BME280;7902;49.042;9.092;2023-11-19T10:08:07;98897.44;;;14.88;70.33
15604;BME280;7902;49.042;9.092;2023-11-19T10:10:34;98887.19;;;14.75;70.00
15604;BME280;7902;49.042;9.092;2023-11-19T10:13:00;98893.16;;;14.87;70.72
15604;BME280;7902;49.042;9.092;2023-11-19T10:15:26;98890.19;;;15.00;70.47
15604;BME280;7902;49.042;9.092;2023-11-19T10:17:55;98898.50;;;15.05;69.59
15604;BME280;7902;49.042;9.092;2023-11-19T10:20:22;98884.88;;;15.00;69.76
15604;BME280;7902;49.042;9.092;2023-11-19T10:22:48;98887.97;;;14.95;70.76
15604;BME280;7902;49.042;9.092;2023-11-19T10:25:27;98884.31;;;15.06;69.69
15604;BME280;7902;49.042;9.092;2023-11-19T10:27:55;98887.97;;;14.95;69.54
15604;BME280;7902;49.042;9.092;2023-11-19T10:30:21;98889.63;;;15.06;70.05
15604;BME280;7902;49.042;9.092;2023-11-19T10:35:28;98877.56;;;14.84;69.24
15604;BME280;7902;49.042;9.092;2023-11-19T10:37:54;98886.28;;;14.94;68.62
15604;BME280;7902;49.042;9.092;2023-11-19T10:40:20;98881.00;;;14.94;68.30
15604;BME280;7902;49.042;9.092;2023-11-19T10:42:46;98885.47;;;14.93;68.17
15604;BME280;7902;49.042;9.092;2023-11-19T10:45:22;98893.25;;;14.95;70.25
15604;BME280;7902;49.042;9.092;2023-11-19T10:47:51;98880.69;;;15.07;68.74
15604;BME280;7902;49.042;9.092;2023-11-19T10:50:17;98882.22;;;15.09;68.71
15604;BME280;7902;49.042;9.092;2023-11-19T10:52:44;98869.75;;;14.92;68.67
15604;BME280;7902;49.042;9.092;2023-11-19T10:55:14;98877.75;;;15.10;68.72
15604;BME280;7902;49.042;9.092;2023-11-19T10:57:43;98860.78;;;15.03;68.75
15604;BME280;7902;49.042;9.092;2023-11-19T11:00:17;98870.41;;;15.04;68.25
15604;BME280;7902;49.042;9.092;2023-11-19T11:02:45;98846.00;;;15.19;69.15
15604;BME280;7902;49.042;9.092;2023-11-19T11:05:14;98848.78;;;15.18;68.75
15604;BME280;7902;49.042;9.092;2023-11-19T11:07:40;98842.91;;;15.24;67.32
15604;BME280;7902;49.042;9.092;2023-11-19T11:10:07;98833.75;;;15.18;67.64
15604;BME280;7902;49.042;9.092;2023-11-19T11:12:38;98836.97;;;15.12;68.50
15604;BME280;7902;49.042;9.092;2023-11-19T11:15:07;98823.47;;;15.15;66.71
15604;BME280;7902;49.042;9.092;2023-11-19T11:17:36;98832.59;;;15.21;68.13
15604;BME280;7902;49.042;9.092;2023-11-19T11:20:02;98831.84;;;15.11;67.06
15604;BME280;7902;49.042;9.092;2023-11-19T11:22:36;98815.69;;;15.31;67.45
15604;BME280;7902;49.042;9.092;2023-11-19T11:25:26;98818.00;;;15.17;67.21
15604;BME280;7902;49.042;9.092;2023-11-19T11:28:04;98814.72;;;15.32;66.16
15604;BME280;7902;49.042;9.092;2023-11-19T11:36:11;98826.97;;;15.33;67.14
15604;BME280;7902;49.042;9.092;2023-11-19T11:38:40;98828.53;;;15.26;67.22
15604;BME280;7902;49.042;9.092;2023-11-19T11:41:17;98826.81;;;15.35;66.77
15604;BME280;7902;49.042;9.092;2023-11-19T11:48:59;98828.03;;;15.41;66.79
15604;BME280;7902;49.042;9.092;2023-11-19T11:54:11;98822.00;;;15.58;66.26
15604;BME280;7902;49.042;9.092;2023-11-19T11:57:13;98822.44;;;15.53;66.81
15604;BME280;7902;49.042;9.092;2023-11-19T12:02:09;98821.78;;;15.42;66.97
15604;BME280;7902;49.042;9.092;2023-11-19T12:04:36;98812.00;;;15.52;65.69
15604;BME280;7902;49.042;9.092;2023-11-19T12:07:12;98820.31;;;15.57;65.97
15604;BME280;7902;49.042;9.092;2023-11-19T12:09:45;98818.34;;;15.59;66.07
15604;BME280;7902;49.042;9.092;2023-11-19T12:12:26;98815.94;;;15.65;65.57
15604;BME280;7902;49.042;9.092;2023-11-19T12:20:02;98802.72;;;15.65;64.52
15604;BME280;7902;49.042;9.092;2023-11-19T12:22:28;98782.06;;;15.69;65.39
15604;BME280;7902;49.042;9.092;2023-11-19T12:24:54;98796.13;;;15.69;65.22
15604;BME280;7902;49.042;9.092;2023-11-19T12:27:20;98794.25;;;15.79;64.58
15604;BME280;7902;49.042;9.092;2023-11-19T12:29:48;98784.50;;;15.80;64.37
15604;BME280;7902;49.042;9.092;2023-11-19T12:32:14;98792.22;;;15.91;64.10
15604;BME280;7902;49.042;9.092;2023-11-19T12:34:40;98791.13;;;15.84;63.72
15604;BME280;7902;49.042;9.092;2023-11-19T12:37:06;98786.31;;;15.79;64.22
15604;BME280;7902;49.042;9.092;2023-11-19T12:39:32;98787.81;;;15.82;64.03
15604;BME280;7902;49.042;9.092;2023-11-19T12:41:58;98781.78;;;15.72;63.64
15604;BME280;7902;49.042;9.092;2023-11-19T12:44:27;98790.31;;;15.84;64.25
15604;BME280;7902;49.042;9.092;2023-11-19T12:47:19;98780.78;;;15.73;63.95
15604;BME280;7902;49.042;9.092;2023-11-19T12:49:55;98789.19;;;15.86;64.13
15604;BME280;7902;49.042;9.092;2023-11-19T12:52:21;98793.72;;;15.76;64.04
15604;BME280;7902;49.042;9.092;2023-11-19T12:54:49;98787.50;;;15.85;63.19
15604;BME280;7902;49.042;9.092;2023-11-19T12:57:15;98796.13;;;15.87;63.48
15604;BME280;7902;49.042;9.092;2023-11-19T12:59:41;98779.94;;;15.90;63.49
15604;BME280;7902;49.042;9.092;2023-11-19T13:02:08;98776.25;;;15.65;64.37
15604;BME280;7902;49.042;9.092;2023-11-19T13:04:34;98779.72;;;15.84;63.27
15604;BME280;7902;49.042;9.092;2023-11-19T13:07:00;98775.69;;;15.97;63.14
15604;BME280;7902;49.042;9.092;2023-11-19T13:09:27;98776.59;;;15.88;63.47
15604;BME280;7902;49.042;9.092;2023-11-19T13:11:55;98772.97;;;15.89;62.83
15604;BME280;7902;49.042;9.092;2023-11-19T13:14:22;98776.03;;;15.76;63.33
15604;BME280;7902;49.042;9.092;2023-11-19T13:16:48;98778.59;;;15.86;63.13
15604;BME280;7902;49.042;9.092;2023-11-19T13:19:15;98775.41;;;15.82;63.23
15604;BME280;7902;49.042;9.092;2023-11-19T13:21:45;98779.72;;;15.84;64.02
15604;BME280;7902;49.042;9.092;2023-11-19T13:24:13;98761.63;;;15.97;63.44
15604;BME280;7902;49.042;9.092;2023-11-19T13:26:39;98769.78;;;16.03;62.25
15604;BME280;7902;49.042;9.092;2023-11-19T13:29:05;98769.78;;;16.03;62.78
15604;BME280;7902;49.042;9.092;2023-11-19T13:31:31;98773.94;;;16.06;62.85
15604;BME280;7902;49.042;9.092;2023-11-19T13:33:57;98762.44;;;15.97;63.09